sensor_id;sensor_type;location;lat;lon;timestamp;P1;durP1;ratioP1;P2;durP2;ratioP2
15952;SDS011;8075;47.766;8.846;2023-03-14T00:00:31;0.90;;;0.40;;
15952;SDS011;8075;47.766;8.846;2023-03-14T00:02:57;0.70;;;0.50;;
15952;SDS011;8075;47.766;8.846;2023-03-14T00:05:23;0.90;;;0.40;;
15952;SDS011;8075;47.766;8.846;2023-03-14T00:07:49;0.45;;;0.30;;
15952;SDS011;8075;47.766;8.846;2023-03-14T00:10:15;0.60;;;0.40;;
15952;SDS011;8075;47.766;8.846;2023-03-14T00:12:41;1.45;;;0.40;;
15952;SDS011;8075;47.766;8.846;2023-03-14T00:15:08;1.27;;;0.40;;
15952;SDS011;8075;47.766;8.846;2023-03-14T00:17:34;1.33;;;0.80;;
15952;SDS011;8075;47.766;8.846;2023-03-14T00:20:01;1.45;;;0.70;;
15952;SDS011;8075;47.766;8.846;2023-03-14T00:22:29;2.33;;;1.40;;
15952;SDS011;8075;47.766;8.846;2023-03-14T00:24:56;3.58;;;1.52;;
15952;SDS011;8075;47.766;8.846;2023-03-14T00:27:22;5.25;;;3.03;;
15952;SDS011;8075;47.766;8.846;2023-03-14T00:29:48;3.23;;;1.73;;
15952;SDS011;8075;47.766;8.846;2023-03-14T00:32:14;2.08;;;1.35;;
15952;SDS011;8075;47.766;8.846;2023-03-14T00:34:40;0.80;;;0.50;;
15952;SDS011;8075;47.766;8.846;2023-03-14T00:37:06;0.60;;;0.53;;
15952;SDS011;8075;47.766;8.846;2023-03-14T00:39:32;0.80;;;0.47;;
15952;SDS011;8075;47.766;8.846;2023-03-14T00:41:58;0.40;;;0.40;;
15952;SDS011;8075;47.766;8.846;2023-03-14T00:44:24;1.00;;;0.40;;
15952;SDS011;8075;47.766;8.846;2023-03-14T00:46:50;0.50;;;0.30;;
15952;SDS011;8075;47.766;8.846;2023-03-14T00:49:16;0.40;;;0.25;;
15952;SDS011;8075;47.766;8.846;2023-03-14T00:51:42;0.20;;;0.20;;
15952;SDS011;8075;47.766;8.846;2023-03-14T00:54:08;0.50;;;0.30;;
15952;SDS011;8075;47.766;8.846;2023-03-14T00:56:34;0.40;;;0.28;;
15952;SDS011;8075;47.766;8.846;2023-03-14T00:59:00;0.55;;;0.30;;
15952;SDS011;8075;47.766;8.846;2023-03-14T01:01:26;0.55;;;0.30;;
15952;SDS011;8075;47.766;8.846;2023-03-14T01:03:53;0.85;;;0.40;;
15952;SDS011;8075;47.766;8.846;2023-03-14T01:06:20;0.82;;;0.50;;
15952;SDS011;8075;47.766;8.846;2023-03-14T01:08:46;0.40;;;0.32;;
15952;SDS011;8075;47.766;8.846;2023-03-14T01:11:17;1.17;;;0.30;;
15952;SDS011;8075;47.766;8.846;2023-03-14T01:13:43;0.60;;;0.20;;
15952;SDS011;8075;47.766;8.846;2023-03-14T01:16:09;0.30;;;0.20;;
15952;SDS011;8075;47.766;8.846;2023-03-14T01:18:36;0.28;;;0.20;;
15952;SDS011;8075;47.766;8.846;2023-03-14T01:21:03;0.32;;;0.20;;
15952;SDS011;8075;47.766;8.846;2023-03-14T01:23:29;0.60;;;0.20;;
15952;SDS011;8075;47.766;8.846;2023-03-14T01:25:55;0.60;;;0.30;;
15952;SDS011;8075;47.766;8.846;2023-03-14T01:28:21;0.50;;;0.10;;
15952;SDS011;8075;47.766;8.846;2023-03-14T01:30:47;0.30;;;0.22;;
15952;SDS011;8075;47.766;8.846;2023-03-14T01:33:13;0.20;;;0.20;;
15952;SDS011;8075;47.766;8.846;2023-03-14T01:35:39;0.38;;;0.25;;
15952;SDS011;8075;47.766;8.846;2023-03-14T01:38:05;0.60;;;0.20;;
15952;SDS011;8075;47.766;8.846;2023-03-14T01:40:31;0.25;;;0.10;;
15952;SDS011;8075;47.766;8.846;2023-03-14T01:42:58;0.37;;;0.27;;
15952;SDS011;8075;47.766;8.846;2023-03-14T01:48:15;0.20;;;0.10;;
15952;SDS011;8075;47.766;8.846;2023-03-14T01:50:41;0.20;;;0.20;;
15952;SDS011;8075;47.766;8.846;2023-03-14T01:53:07;0.60;;;0.13;;
15952;SDS011;8075;47.766;8.846;2023-03-14T01:55:33;0.10;;;0.10;;
15952;SDS011;8075;47.766;8.846;2023-03-14T01:58:00;0.60;;;0.20;;
15952;SDS011;8075;47.766;8.846;2023-03-14T02:00:28;0.35;;;0.20;;
15952;SDS011;8075;47.766;8.846;2023-03-14T02:03:16;0.20;;;0.10;;
15952;SDS011;8075;47.766;8.846;2023-03-14T02:05:41;0.50;;;0.10;;
15952;SDS011;8075;47.766;8.846;2023-03-14T02:08:11;0.10;;;0.10;;
15952;SDS011;8075;47.766;8.846;2023-03-14T02:10:40;0.10;;;0.10;;
15952;SDS011;8075;47.766;8.846;2023-03-14T02:13:07;0.13;;;0.13;;
15952;SDS011;8075;47.766;8.846;2023-03-14T02:15:33;0.20;;;0.20;;
15952;SDS011;8075;47.766;8.846;2023-03-14T02:18:00;0.10;;;0.10;;
15952;SDS011;8075;47.766;8.846;2023-03-14T02:22:56;2.20;;;0.10;;
15952;SDS011;8075;47.766;8.846;2023-03-14T02:27:51;0.20;;;0.10;;
15952;SDS011;8075;47.766;8.846;2023-03-14T02:30:18;0.20;;;0.10;;
15952;SDS011;8075;47.766;8.846;2023-03-14T02:32:49;1.50;;;0.10;;
15952;SDS011;8075;47.766;8.846;2023-03-14T02:35:18;0.15;;;0.08;;
15952;SDS011;8075;47.766;8.846;2023-03-14T02:37:50;0.20;;;0.20;;
15952;SDS011;8075;47.766;8.846;2023-03-14T02:40:17;0.10;;;0.10;;
15952;SDS011;8075;47.766;8.846;2023-03-14T02:42:43;0.40;;;0.10;;
15952;SDS011;8075;47.766;8.846;2023-03-14T02:47:39;0.10;;;0.10;;
15952;SDS011;8075;47.766;8.846;2023-03-14T02:50:09;0.30;;;0.22;;
15952;SDS011;8075;47.766;8.846;2023-03-14T02:52:35;1.05;;;0.70;;
15952;SDS011;8075;47.766;8.846;2023-03-14T02:55:01;1.00;;;0.60;;
15952;SDS011;8075;47.766;8.846;2023-03-14T02:57:28;1.77;;;1.48;;
15952;SDS011;8075;47.766;8.846;2023-03-14T02:59:57;0.75;;;0.55;;
15952;SDS011;8075;47.766;8.846;2023-03-14T03:02:24;0.82;;;0.50;;
15952;SDS011;8075;47.766;8.846;2023-03-14T03:04:50;0.75;;;0.65;;
15952;SDS011;8075;47.766;8.846;2023-03-14T03:07:15;0.60;;;0.60;;
15952;SDS011;8075;47.766;8.846;2023-03-14T03:09:42;0.55;;;0.40;;
15952;SDS011;8075;47.766;8.846;2023-03-14T03:12:07;0.60;;;0.50;;
15952;SDS011;8075;47.766;8.846;2023-03-14T03:14:33;0.32;;;0.30;;
15952;SDS011;8075;47.766;8.846;2023-03-14T03:16:59;1.60;;;0.90;;
15952;SDS011;8075;47.766;8.846;2023-03-14T03:19:25;0.60;;;0.40;;
15952;SDS011;8075;47.766;8.846;2023-03-14T03:21:51;0.35;;;0.30;;
15952;SDS011;8075;47.766;8.846;2023-03-14T03:24:17;0.30;;;0.20;;
15952;SDS011;8075;47.766;8.846;2023-03-14T03:26:43;0.63;;;0.30;;
15952;SDS011;8075;47.766;8.846;2023-03-14T03:29:09;0.95;;;0.40;;
15952;SDS011;8075;47.766;8.846;2023-03-14T03:31:36;1.25;;;0.80;;
15952;SDS011;8075;47.766;8.846;2023-03-14T03:34:02;0.50;;;0.40;;
15952;SDS011;8075;47.766;8.846;2023-03-14T03:36:28;0.30;;;0.20;;
15952;SDS011;8075;47.766;8.846;2023-03-14T03:38:54;0.20;;;0.20;;
15952;SDS011;8075;47.766;8.846;2023-03-14T03:41:20;0.20;;;0.20;;
15952;SDS011;8075;47.766;8.846;2023-03-14T03:43:46;0.30;;;0.20;;
15952;SDS011;8075;47.766;8.846;2023-03-14T03:46:13;0.20;;;0.20;;
15952;SDS011;8075;47.766;8.846;2023-03-14T03:48:39;1.33;;;0.40;;
15952;SDS011;8075;47.766;8.846;2023-03-14T03:51:05;0.20;;;0.10;;
15952;SDS011;8075;47.766;8.846;2023-03-14T03:53:32;0.28;;;0.17;;
15952;SDS011;8075;47.766;8.846;2023-03-14T03:55:58;0.40;;;0.20;;
15952;SDS011;8075;47.766;8.846;2023-03-14T03:58:24;0.20;;;0.20;;
15952;SDS011;8075;47.766;8.846;2023-03-14T04:00:50;0.17;;;0.17;;
15952;SDS011;8075;47.766;8.846;2023-03-14T04:03:16;0.13;;;0.10;;
15952;SDS011;8075;47.766;8.846;2023-03-14T04:05:42;0.20;;;0.20;;
15952;SDS011;8075;47.766;8.846;2023-03-14T04:08:08;0.45;;;0.20;;
15952;SDS011;8075;47.766;8.846;2023-03-14T04:10:34;0.10;;;0.10;;
15952;SDS011;8075;47.766;8.846;2023-03-14T04:13:01;1.15;;;0.47;;
15952;SDS011;8075;47.766;8.846;2023-03-14T04:15:27;0.20;;;0.20;;
15952;SDS011;8075;47.766;8.846;2023-03-14T04:17:56;0.10;;;0.10;;
15952;SDS011;8075;47.766;8.846;2023-03-14T04:20:22;0.85;;;0.15;;
15952;SDS011;8075;47.766;8.846;2023-03-14T04:22:48;0.20;;;0.10;;
15952;SDS011;8075;47.766;8.846;2023-03-14T04:25:14;0.10;;;0.10;;
15952;SDS011;8075;47.766;8.846;2023-03-14T04:27:42;0.10;;;0.10;;
15952;SDS011;8075;47.766;8.846;2023-03-14T04:30:08;0.20;;;0.10;;
15952;SDS011;8075;47.766;8.846;2023-03-14T04:32:34;0.20;;;0.20;;
15952;SDS011;8075;47.766;8.846;2023-03-14T04:35:00;0.00;;;0.00;;
15952;SDS011;8075;47.766;8.846;2023-03-14T04:37:26;0.20;;;0.20;;
15952;SDS011;8075;47.766;8.846;2023-03-14T04:39:52;0.40;;;0.20;;
15952;SDS011;8075;47.766;8.846;2023-03-14T04:42:18;0.17;;;0.10;;
15952;SDS011;8075;47.766;8.846;2023-03-14T04:44:44;0.28;;;0.20;;
15952;SDS011;8075;47.766;8.846;2023-03-14T04:47:11;0.70;;;0.20;;
15952;SDS011;8075;47.766;8.846;2023-03-14T04:49:37;0.30;;;0.10;;
15952;SDS011;8075;47.766;8.846;2023-03-14T04:52:03;0.10;;;0.10;;
15952;SDS011;8075;47.766;8.846;2023-03-14T04:54:29;0.15;;;0.10;;
15952;SDS011;8075;47.766;8.846;2023-03-14T04:56:55;0.20;;;0.20;;
15952;SDS011;8075;47.766;8.846;2023-03-14T04:59:21;0.30;;;0.10;;
15952;SDS011;8075;47.766;8.846;2023-03-14T05:01:47;0.28;;;0.20;;
15952;SDS011;8075;47.766;8.846;2023-03-14T05:04:14;0.10;;;0.10;;
15952;SDS011;8075;47.766;8.846;2023-03-14T05:06:40;0.70;;;0.10;;
15952;SDS011;8075;47.766;8.846;2023-03-14T05:09:07;2.47;;;1.57;;
15952;SDS011;8075;47.766;8.846;2023-03-14T05:11:33;0.10;;;0.10;;
15952;SDS011;8075;47.766;8.846;2023-03-14T05:13:59;0.55;;;0.28;;
15952;SDS011;8075;47.766;8.846;2023-03-14T05:16:25;0.40;;;0.10;;
15952;SDS011;8075;47.766;8.846;2023-03-14T05:18:51;0.40;;;0.13;;
15952;SDS011;8075;47.766;8.846;2023-03-14T05:21:17;0.10;;;0.10;;
15952;SDS011;8075;47.766;8.846;2023-03-14T05:23:43;0.40;;;0.20;;
15952;SDS011;8075;47.766;8.846;2023-03-14T05:26:09;1.13;;;0.20;;
15952;SDS011;8075;47.766;8.846;2023-03-14T05:28:35;0.55;;;0.15;;
15952;SDS011;8075;47.766;8.846;2023-03-14T05:31:05;0.20;;;0.17;;
15952;SDS011;8075;47.766;8.846;2023-03-14T05:33:31;0.80;;;0.20;;
15952;SDS011;8075;47.766;8.846;2023-03-14T05:35:57;0.22;;;0.20;;
15952;SDS011;8075;47.766;8.846;2023-03-14T05:38:23;0.22;;;0.20;;
15952;SDS011;8075;47.766;8.846;2023-03-14T05:40:49;0.52;;;0.13;;
15952;SDS011;8075;47.766;8.846;2023-03-14T05:43:15;0.32;;;0.10;;
15952;SDS011;8075;47.766;8.846;2023-03-14T05:45:41;0.70;;;0.25;;
15952;SDS011;8075;47.766;8.846;2023-03-14T05:48:08;0.30;;;0.20;;
15952;SDS011;8075;47.766;8.846;2023-03-14T05:50:34;0.75;;;0.20;;
15952;SDS011;8075;47.766;8.846;2023-03-14T05:53:00;1.13;;;0.20;;
15952;SDS011;8075;47.766;8.846;2023-03-14T05:55:26;0.20;;;0.20;;
15952;SDS011;8075;47.766;8.846;2023-03-14T05:57:52;0.50;;;0.30;;
15952;SDS011;8075;47.766;8.846;2023-03-14T06:00:19;1.10;;;0.10;;
15952;SDS011;8075;47.766;8.846;2023-03-14T06:02:45;0.90;;;0.25;;
15952;SDS011;8075;47.766;8.846;2023-03-14T06:05:11;0.20;;;0.20;;
15952;SDS011;8075;47.766;8.846;2023-03-14T06:07:37;0.15;;;0.10;;
15952;SDS011;8075;47.766;8.846;2023-03-14T06:10:03;0.20;;;0.20;;
15952;SDS011;8075;47.766;8.846;2023-03-14T06:12:29;0.55;;;0.20;;
15952;SDS011;8075;47.766;8.846;2023-03-14T06:14:55;0.30;;;0.20;;
15952;SDS011;8075;47.766;8.846;2023-03-14T06:17:21;0.20;;;0.20;;
15952;SDS011;8075;47.766;8.846;2023-03-14T06:19:47;0.20;;;0.20;;
15952;SDS011;8075;47.766;8.846;2023-03-14T06:22:13;0.20;;;0.20;;
15952;SDS011;8075;47.766;8.846;2023-03-14T06:24:39;0.20;;;0.20;;
15952;SDS011;8075;47.766;8.846;2023-03-14T06:27:05;0.45;;;0.20;;
15952;SDS011;8075;47.766;8.846;2023-03-14T06:29:31;0.20;;;0.10;;
15952;SDS011;8075;47.766;8.846;2023-03-14T06:31:57;0.32;;;0.20;;
15952;SDS011;8075;47.766;8.846;2023-03-14T06:34:23;0.57;;;0.30;;
15952;SDS011;8075;47.766;8.846;2023-03-14T06:36:49;0.50;;;0.30;;
15952;SDS011;8075;47.766;8.846;2023-03-14T06:39:15;0.40;;;0.20;;
15952;SDS011;8075;47.766;8.846;2023-03-14T06:41:41;1.15;;;0.13;;
15952;SDS011;8075;47.766;8.846;2023-03-14T06:44:07;0.30;;;0.30;;
15952;SDS011;8075;47.766;8.846;2023-03-14T06:46:33;0.70;;;0.50;;
15952;SDS011;8075;47.766;8.846;2023-03-14T06:48:59;0.90;;;0.43;;
15952;SDS011;8075;47.766;8.846;2023-03-14T06:51:25;0.70;;;0.50;;
15952;SDS011;8075;47.766;8.846;2023-03-14T06:53:51;0.88;;;0.70;;
15952;SDS011;8075;47.766;8.846;2023-03-14T06:56:17;1.50;;;0.80;;
15952;SDS011;8075;47.766;8.846;2023-03-14T06:58:43;1.03;;;0.80;;
15952;SDS011;8075;47.766;8.846;2023-03-14T07:01:23;0.82;;;0.50;;
15952;SDS011;8075;47.766;8.846;2023-03-14T07:03:49;1.60;;;0.80;;
15952;SDS011;8075;47.766;8.846;2023-03-14T07:06:15;0.93;;;0.40;;
15952;SDS011;8075;47.766;8.846;2023-03-14T07:08:41;1.27;;;0.40;;
15952;SDS011;8075;47.766;8.846;2023-03-14T07:11:08;1.00;;;0.32;;
15952;SDS011;8075;47.766;8.846;2023-03-14T07:13:35;1.27;;;0.40;;
15952;SDS011;8075;47.766;8.846;2023-03-14T07:16:02;0.70;;;0.40;;
15952;SDS011;8075;47.766;8.846;2023-03-14T07:18:28;0.40;;;0.30;;
15952;SDS011;8075;47.766;8.846;2023-03-14T07:20:54;0.50;;;0.30;;
15952;SDS011;8075;47.766;8.846;2023-03-14T07:23:19;1.70;;;0.40;;
15952;SDS011;8075;47.766;8.846;2023-03-14T07:25:45;0.73;;;0.30;;
15952;SDS011;8075;47.766;8.846;2023-03-14T07:28:11;1.20;;;0.30;;
15952;SDS011;8075;47.766;8.846;2023-03-14T07:30:37;0.77;;;0.30;;
15952;SDS011;8075;47.766;8.846;2023-03-14T07:33:03;0.30;;;0.30;;
15952;SDS011;8075;47.766;8.846;2023-03-14T07:35:29;0.60;;;0.30;;
15952;SDS011;8075;47.766;8.846;2023-03-14T07:37:55;1.05;;;0.30;;
15952;SDS011;8075;47.766;8.846;2023-03-14T07:40:21;2.22;;;0.30;;
15952;SDS011;8075;47.766;8.846;2023-03-14T07:42:47;1.60;;;0.40;;
15952;SDS011;8075;47.766;8.846;2023-03-14T07:45:14;0.40;;;0.30;;
15952;SDS011;8075;47.766;8.846;2023-03-14T07:47:40;0.50;;;0.40;;
15952;SDS011;8075;47.766;8.846;2023-03-14T07:50:06;0.27;;;0.20;;
15952;SDS011;8075;47.766;8.846;2023-03-14T07:52:32;0.98;;;0.20;;
15952;SDS011;8075;47.766;8.846;2023-03-14T07:54:58;0.38;;;0.22;;
15952;SDS011;8075;47.766;8.846;2023-03-14T07:57:24;0.30;;;0.20;;
15952;SDS011;8075;47.766;8.846;2023-03-14T07:59:50;0.80;;;0.60;;
15952;SDS011;8075;47.766;8.846;2023-03-14T08:02:16;1.13;;;0.40;;
15952;SDS011;8075;47.766;8.846;2023-03-14T08:04:45;0.65;;;0.30;;
15952;SDS011;8075;47.766;8.846;2023-03-14T08:07:11;0.88;;;0.30;;
15952;SDS011;8075;47.766;8.846;2023-03-14T08:09:37;0.45;;;0.32;;
15952;SDS011;8075;47.766;8.846;2023-03-14T08:12:03;0.70;;;0.40;;
15952;SDS011;8075;47.766;8.846;2023-03-14T08:14:29;0.93;;;0.43;;
15952;SDS011;8075;47.766;8.846;2023-03-14T08:16:55;1.15;;;0.60;;
15952;SDS011;8075;47.766;8.846;2023-03-14T08:19:22;1.40;;;0.43;;
15952;SDS011;8075;47.766;8.846;2023-03-14T08:21:48;0.63;;;0.32;;
15952;SDS011;8075;47.766;8.846;2023-03-14T08:24:14;1.20;;;0.32;;
15952;SDS011;8075;47.766;8.846;2023-03-14T08:26:40;1.58;;;0.35;;
15952;SDS011;8075;47.766;8.846;2023-03-14T08:29:06;1.10;;;0.30;;
15952;SDS011;8075;47.766;8.846;2023-03-14T08:31:33;0.98;;;0.30;;
15952;SDS011;8075;47.766;8.846;2023-03-14T08:33:59;0.75;;;0.57;;
15952;SDS011;8075;47.766;8.846;2023-03-14T08:36:25;0.75;;;0.20;;
15952;SDS011;8075;47.766;8.846;2023-03-14T08:38:51;0.57;;;0.30;;
15952;SDS011;8075;47.766;8.846;2023-03-14T08:41:17;0.63;;;0.30;;
15952;SDS011;8075;47.766;8.846;2023-03-14T08:43:43;1.17;;;0.30;;
15952;SDS011;8075;47.766;8.846;2023-03-14T08:46:09;0.82;;;0.20;;
15952;SDS011;8075;47.766;8.846;2023-03-14T08:48:35;0.82;;;0.20;;
15952;SDS011;8075;47.766;8.846;2023-03-14T08:51:08;1.00;;;0.30;;
15952;SDS011;8075;47.766;8.846;2023-03-14T08:53:35;1.35;;;0.35;;
15952;SDS011;8075;47.766;8.846;2023-03-14T08:56:01;0.90;;;0.20;;
15952;SDS011;8075;47.766;8.846;2023-03-14T08:58:28;1.15;;;0.30;;
15952;SDS011;8075;47.766;8.846;2023-03-14T09:00:55;0.63;;;0.30;;
15952;SDS011;8075;47.766;8.846;2023-03-14T09:03:21;0.17;;;0.10;;
15952;SDS011;8075;47.766;8.846;2023-03-14T09:05:48;0.28;;;0.20;;
15952;SDS011;8075;47.766;8.846;2023-03-14T09:08:14;0.73;;;0.52;;
15952;SDS011;8075;47.766;8.846;2023-03-14T09:10:40;0.20;;;0.20;;
15952;SDS011;8075;47.766;8.846;2023-03-14T09:13:09;0.63;;;0.10;;
15952;SDS011;8075;47.766;8.846;2023-03-14T09:15:35;1.13;;;0.20;;
15952;SDS011;8075;47.766;8.846;2023-03-14T09:18:01;0.20;;;0.20;;
15952;SDS011;8075;47.766;8.846;2023-03-14T09:20:27;0.20;;;0.10;;
15952;SDS011;8075;47.766;8.846;2023-03-14T09:22:53;0.30;;;0.17;;
15952;SDS011;8075;47.766;8.846;2023-03-14T09:25:19;0.47;;;0.10;;
15952;SDS011;8075;47.766;8.846;2023-03-14T09:27:45;0.60;;;0.10;;
15952;SDS011;8075;47.766;8.846;2023-03-14T09:30:11;1.10;;;0.20;;
15952;SDS011;8075;47.766;8.846;2023-03-14T09:32:37;0.50;;;0.13;;
15952;SDS011;8075;47.766;8.846;2023-03-14T09:35:03;0.20;;;0.08;;
15952;SDS011;8075;47.766;8.846;2023-03-14T09:37:29;0.30;;;0.10;;
15952;SDS011;8075;47.766;8.846;2023-03-14T09:39:55;0.40;;;0.13;;
15952;SDS011;8075;47.766;8.846;2023-03-14T09:42:22;0.70;;;0.10;;
15952;SDS011;8075;47.766;8.846;2023-03-14T09:44:52;0.40;;;0.20;;
15952;SDS011;8075;47.766;8.846;2023-03-14T09:47:19;2.22;;;0.22;;
15952;SDS011;8075;47.766;8.846;2023-03-14T09:49:46;0.30;;;0.15;;
15952;SDS011;8075;47.766;8.846;2023-03-14T09:54:57;0.32;;;0.10;;
15952;SDS011;8075;47.766;8.846;2023-03-14T09:57:24;0.50;;;0.20;;
15952;SDS011;8075;47.766;8.846;2023-03-14T09:59:51;0.47;;;0.10;;
15952;SDS011;8075;47.766;8.846;2023-03-14T10:02:20;0.52;;;0.20;;
15952;SDS011;8075;47.766;8.846;2023-03-14T10:04:47;0.28;;;0.20;;
15952;SDS011;8075;47.766;8.846;2023-03-14T10:07:14;0.68;;;0.30;;
15952;SDS011;8075;47.766;8.846;2023-03-14T10:09:43;0.10;;;0.10;;
15952;SDS011;8075;47.766;8.846;2023-03-14T10:12:08;0.50;;;0.20;;
15952;SDS011;8075;47.766;8.846;2023-03-14T10:14:36;0.45;;;0.10;;
15952;SDS011;8075;47.766;8.846;2023-03-14T10:17:07;0.40;;;0.10;;
15952;SDS011;8075;47.766;8.846;2023-03-14T10:19:34;0.30;;;0.10;;
15952;SDS011;8075;47.766;8.846;2023-03-14T10:22:01;0.30;;;0.20;;
15952;SDS011;8075;47.766;8.846;2023-03-14T10:24:28;1.13;;;0.10;;
15952;SDS011;8075;47.766;8.846;2023-03-14T10:26:57;0.20;;;0.10;;
15952;SDS011;8075;47.766;8.846;2023-03-14T10:29:26;0.95;;;0.10;;
15952;SDS011;8075;47.766;8.846;2023-03-14T10:31:53;0.50;;;0.10;;
15952;SDS011;8075;47.766;8.846;2023-03-14T10:34:24;0.20;;;0.10;;
15952;SDS011;8075;47.766;8.846;2023-03-14T10:36:57;0.10;;;0.10;;
15952;SDS011;8075;47.766;8.846;2023-03-14T10:41:54;0.20;;;0.10;;
15952;SDS011;8075;47.766;8.846;2023-03-14T10:44:23;0.30;;;0.20;;
15952;SDS011;8075;47.766;8.846;2023-03-14T10:46:56;2.20;;;0.20;;
15952;SDS011;8075;47.766;8.846;2023-03-14T10:49:31;0.30;;;0.10;;
15952;SDS011;8075;47.766;8.846;2023-03-14T10:52:02;0.63;;;0.20;;
15952;SDS011;8075;47.766;8.846;2023-03-14T10:54:29;0.45;;;0.17;;
15952;SDS011;8075;47.766;8.846;2023-03-14T10:56:57;0.20;;;0.10;;
15952;SDS011;8075;47.766;8.846;2023-03-14T10:59:23;0.60;;;0.20;;
15952;SDS011;8075;47.766;8.846;2023-03-14T11:04:25;0.30;;;0.10;;
15952;SDS011;8075;47.766;8.846;2023-03-14T11:11:46;0.30;;;0.30;;
15952;SDS011;8075;47.766;8.846;2023-03-14T11:22:21;0.40;;;0.20;;
15952;SDS011;8075;47.766;8.846;2023-03-14T11:24:51;0.28;;;0.13;;
15952;SDS011;8075;47.766;8.846;2023-03-14T11:27:21;0.50;;;0.20;;
15952;SDS011;8075;47.766;8.846;2023-03-14T11:29:55;0.20;;;0.20;;
15952;SDS011;8075;47.766;8.846;2023-03-14T11:32:40;0.20;;;0.20;;
15952;SDS011;8075;47.766;8.846;2023-03-14T11:35:28;0.40;;;0.10;;
15952;SDS011;8075;47.766;8.846;2023-03-14T11:37:57;0.40;;;0.30;;
15952;SDS011;8075;47.766;8.846;2023-03-14T11:40:26;0.73;;;0.20;;
15952;SDS011;8075;47.766;8.846;2023-03-14T11:43:15;1.10;;;0.30;;
15952;SDS011;8075;47.766;8.846;2023-03-14T11:45:40;0.50;;;0.40;;
15952;SDS011;8075;47.766;8.846;2023-03-14T11:48:10;0.47;;;0.20;;
15952;SDS011;8075;47.766;8.846;2023-03-14T11:50:39;0.40;;;0.28;;
15952;SDS011;8075;47.766;8.846;2023-03-14T11:53:09;0.77;;;0.40;;
15952;SDS011;8075;47.766;8.846;2023-03-14T11:55:39;0.60;;;0.40;;
15952;SDS011;8075;47.766;8.846;2023-03-14T11:58:17;0.60;;;0.43;;
15952;SDS011;8075;47.766;8.846;2023-03-14T12:00:45;0.35;;;0.32;;
15952;SDS011;8075;47.766;8.846;2023-03-14T12:13:58;0.35;;;0.30;;
15952;SDS011;8075;47.766;8.846;2023-03-14T12:18:50;1.50;;;0.50;;
15952;SDS011;8075;47.766;8.846;2023-03-14T12:21:17;0.40;;;0.30;;
15952;SDS011;8075;47.766;8.846;2023-03-14T12:28:38;0.60;;;0.30;;
15952;SDS011;8075;47.766;8.846;2023-03-14T12:33:55;1.52;;;0.30;;
15952;SDS011;8075;47.766;8.846;2023-03-14T12:37:11;0.30;;;0.30;;
15952;SDS011;8075;47.766;8.846;2023-03-14T12:44:39;0.70;;;0.40;;
15952;SDS011;8075;47.766;8.846;2023-03-14T12:49:44;0.45;;;0.30;;
15952;SDS011;8075;47.766;8.846;2023-03-14T12:52:14;0.52;;;0.40;;
15952;SDS011;8075;47.766;8.846;2023-03-14T12:54:46;0.82;;;0.50;;
15952;SDS011;8075;47.766;8.846;2023-03-14T12:57:38;1.20;;;0.50;;
15952;SDS011;8075;47.766;8.846;2023-03-14T13:00:16;0.70;;;0.30;;
15952;SDS011;8075;47.766;8.846;2023-03-14T13:02:43;1.40;;;0.40;;
15952;SDS011;8075;47.766;8.846;2023-03-14T13:05:11;1.27;;;0.35;;
15952;SDS011;8075;47.766;8.846;2023-03-14T13:10:16;1.10;;;0.30;;
15952;SDS011;8075;47.766;8.846;2023-03-14T13:15:33;0.57;;;0.30;;
15952;SDS011;8075;47.766;8.846;2023-03-14T13:18:01;0.20;;;0.20;;
15952;SDS011;8075;47.766;8.846;2023-03-14T13:20:29;0.45;;;0.30;;
15952;SDS011;8075;47.766;8.846;2023-03-14T13:22:56;0.20;;;0.20;;
15952;SDS011;8075;47.766;8.846;2023-03-14T13:25:22;0.40;;;0.20;;
15952;SDS011;8075;47.766;8.846;2023-03-14T13:27:49;0.10;;;0.10;;
15952;SDS011;8075;47.766;8.846;2023-03-14T13:30:25;0.55;;;0.17;;
15952;SDS011;8075;47.766;8.846;2023-03-14T13:32:51;0.20;;;0.20;;
15952;SDS011;8075;47.766;8.846;2023-03-14T13:35:22;0.90;;;0.20;;
15952;SDS011;8075;47.766;8.846;2023-03-14T13:37:59;0.50;;;0.30;;
15952;SDS011;8075;47.766;8.846;2023-03-14T13:40:29;0.40;;;0.20;;
15952;SDS011;8075;47.766;8.846;2023-03-14T13:43:02;0.40;;;0.17;;
15952;SDS011;8075;47.766;8.846;2023-03-14T13:45:29;0.30;;;0.20;;
15952;SDS011;8075;47.766;8.846;2023-03-14T13:47:55;0.70;;;0.20;;
15952;SDS011;8075;47.766;8.846;2023-03-14T13:50:22;0.65;;;0.30;;
15952;SDS011;8075;47.766;8.846;2023-03-14T13:52:48;0.60;;;0.40;;
15952;SDS011;8075;47.766;8.846;2023-03-14T13:55:20;0.70;;;0.32;;
15952;SDS011;8075;47.766;8.846;2023-03-14T13:57:47;0.80;;;0.30;;
15952;SDS011;8075;47.766;8.846;2023-03-14T14:00:18;0.40;;;0.30;;
15952;SDS011;8075;47.766;8.846;2023-03-14T14:02:45;0.32;;;0.30;;
15952;SDS011;8075;47.766;8.846;2023-03-14T14:05:11;0.57;;;0.30;;
15952;SDS011;8075;47.766;8.846;2023-03-14T14:07:38;0.80;;;0.45;;
15952;SDS011;8075;47.766;8.846;2023-03-14T14:10:04;1.52;;;0.60;;
15952;SDS011;8075;47.766;8.846;2023-03-14T14:12:35;1.05;;;0.30;;
15952;SDS011;8075;47.766;8.846;2023-03-14T14:15:19;0.95;;;0.35;;
15952;SDS011;8075;47.766;8.846;2023-03-14T14:17:50;1.27;;;0.40;;
15952;SDS011;8075;47.766;8.846;2023-03-14T14:22:46;1.35;;;0.45;;
15952;SDS011;8075;47.766;8.846;2023-03-14T14:25:13;1.83;;;0.40;;
15952;SDS011;8075;47.766;8.846;2023-03-14T14:27:41;1.17;;;0.60;;
15952;SDS011;8075;47.766;8.846;2023-03-14T14:32:43;1.27;;;0.55;;
15952;SDS011;8075;47.766;8.846;2023-03-14T14:35:23;1.58;;;0.60;;
15952;SDS011;8075;47.766;8.846;2023-03-14T14:37:49;1.10;;;0.57;;
15952;SDS011;8075;47.766;8.846;2023-03-14T14:40:28;1.38;;;0.52;;
15952;SDS011;8075;47.766;8.846;2023-03-14T14:42:55;2.25;;;0.60;;
15952;SDS011;8075;47.766;8.846;2023-03-14T14:45:28;1.30;;;0.63;;
15952;SDS011;8075;47.766;8.846;2023-03-14T14:47:55;2.53;;;0.70;;
15952;SDS011;8075;47.766;8.846;2023-03-14T14:52:56;2.75;;;0.90;;
15952;SDS011;8075;47.766;8.846;2023-03-14T14:55:22;1.63;;;0.60;;
15952;SDS011;8075;47.766;8.846;2023-03-14T14:57:52;2.03;;;0.70;;
15952;SDS011;8075;47.766;8.846;2023-03-14T15:00:27;2.08;;;1.17;;
15952;SDS011;8075;47.766;8.846;2023-03-14T15:02:54;1.35;;;0.70;;
15952;SDS011;8075;47.766;8.846;2023-03-14T15:05:22;2.40;;;0.70;;
15952;SDS011;8075;47.766;8.846;2023-03-14T15:07:48;1.50;;;0.65;;
15952;SDS011;8075;47.766;8.846;2023-03-14T15:10:18;2.05;;;0.90;;
15952;SDS011;8075;47.766;8.846;2023-03-14T15:12:44;1.80;;;0.75;;
15952;SDS011;8075;47.766;8.846;2023-03-14T15:15:12;2.45;;;0.77;;
15952;SDS011;8075;47.766;8.846;2023-03-14T15:17:38;1.77;;;0.60;;
15952;SDS011;8075;47.766;8.846;2023-03-14T15:20:05;3.08;;;0.70;;
15952;SDS011;8075;47.766;8.846;2023-03-14T15:22:35;1.73;;;0.73;;
15952;SDS011;8075;47.766;8.846;2023-03-14T15:25:01;1.88;;;0.73;;
15952;SDS011;8075;47.766;8.846;2023-03-14T15:27:27;2.25;;;0.60;;
15952;SDS011;8075;47.766;8.846;2023-03-14T15:29:54;2.40;;;0.63;;
15952;SDS011;8075;47.766;8.846;2023-03-14T15:32:20;2.83;;;0.50;;
15952;SDS011;8075;47.766;8.846;2023-03-14T15:34:46;2.30;;;0.52;;
15952;SDS011;8075;47.766;8.846;2023-03-14T15:37:13;2.23;;;0.80;;
15952;SDS011;8075;47.766;8.846;2023-03-14T15:39:40;2.08;;;0.73;;
15952;SDS011;8075;47.766;8.846;2023-03-14T15:42:06;2.50;;;0.57;;
15952;SDS011;8075;47.766;8.846;2023-03-14T15:44:33;1.87;;;0.73;;
15952;SDS011;8075;47.766;8.846;2023-03-14T15:46:59;1.70;;;0.70;;
15952;SDS011;8075;47.766;8.846;2023-03-14T15:49:25;2.13;;;0.70;;
15952;SDS011;8075;47.766;8.846;2023-03-14T15:51:51;2.15;;;0.75;;
15952;SDS011;8075;47.766;8.846;2023-03-14T15:54:16;1.92;;;0.80;;
15952;SDS011;8075;47.766;8.846;2023-03-14T15:56:42;1.83;;;0.87;;
15952;SDS011;8075;47.766;8.846;2023-03-14T15:59:08;2.97;;;0.77;;
15952;SDS011;8075;47.766;8.846;2023-03-14T16:01:34;2.13;;;0.63;;
15952;SDS011;8075;47.766;8.846;2023-03-14T16:04:00;2.10;;;0.80;;
15952;SDS011;8075;47.766;8.846;2023-03-14T16:06:27;1.77;;;0.70;;
15952;SDS011;8075;47.766;8.846;2023-03-14T16:08:53;2.53;;;0.90;;
15952;SDS011;8075;47.766;8.846;2023-03-14T16:11:19;2.20;;;0.80;;
15952;SDS011;8075;47.766;8.846;2023-03-14T16:13:45;1.77;;;0.82;;